RYR5SB EDDB-LDZD
Flight info
| Callsign | RYR5SB |
|---|---|
| Flight time | 1h 24m |
| Altitude | 35000 |
| Route | LUROS4B LUROS Y211 BEBKU Z36 MAREM DCT BUDEX DCT LIMRA DCT ABTAN DCT DOL DCT MAXUR DCT DARZA DCT KUDUL |
| Aircraft | A320/M-SDE3FGHIRWY/LB1 |
Departure
| Time | 2026-05-04 22:52 |
|---|---|
| Airport | Berlin Brandenburg Airport (EDDB) |
Arrival
| Time | 2026-05-05 00:17 |
|---|---|
| Airport | Zadar Airport (LDZD) |
| Time | Latitude | Longitude | Altitude | Speed | Heading |
|---|---|---|---|---|---|
| 2026-05-04 22:38 | 52.36771 | 13.50683 | 156 ft | 0 kts | 159° |
| 2026-05-04 22:45 | 52.36789 | 13.50672 | 155 ft | 3 kts | 159° |
| 2026-05-04 22:45 | 52.36827 | 13.50650 | 156 ft | 3 kts | 181° |
| 2026-05-04 22:45 | 52.36847 | 13.50658 | 155 ft | 3 kts | 222° |
| 2026-05-04 22:46 | 52.36856 | 13.50675 | 155 ft | 1 kts | 249° |
| 2026-05-04 22:47 | 52.36855 | 13.50672 | 155 ft | 2 kts | 249° |
| 2026-05-04 22:47 | 52.36836 | 13.50596 | 155 ft | 12 kts | 248° |
| 2026-05-04 22:48 | 52.36806 | 13.50468 | 156 ft | 10 kts | 249° |
| 2026-05-04 22:48 | 52.36781 | 13.50362 | 155 ft | 10 kts | 249° |
| 2026-05-04 22:48 | 52.36757 | 13.50247 | 153 ft | 10 kts | 261° |
| 2026-05-04 22:48 | 52.36801 | 13.50176 | 152 ft | 10 kts | 339° |
| 2026-05-04 22:49 | 52.36890 | 13.50113 | 150 ft | 16 kts | 320° |
| 2026-05-04 22:49 | 52.36878 | 13.49955 | 148 ft | 15 kts | 249° |
| 2026-05-04 22:49 | 52.36842 | 13.49806 | 148 ft | 13 kts | 249° |
| 2026-05-04 22:49 | 52.36812 | 13.49678 | 148 ft | 11 kts | 248° |
| 2026-05-04 22:50 | 52.36778 | 13.49537 | 148 ft | 14 kts | 248° |
| 2026-05-04 22:50 | 52.36811 | 13.49433 | 150 ft | 9 kts | 347° |
| 2026-05-04 22:50 | 52.36862 | 13.49467 | 152 ft | 9 kts | 34° |
| 2026-05-04 22:50 | 52.36926 | 13.49551 | 156 ft | 15 kts | 40° |
| 2026-05-04 22:51 | 52.37008 | 13.49660 | 157 ft | 16 kts | 39° |
| 2026-05-04 22:51 | 52.37074 | 13.49796 | 159 ft | 18 kts | 70° |
| 2026-05-04 22:51 | 52.37179 | 13.50232 | 158 ft | 79 kts | 68° |
| 2026-05-04 22:51 | 52.37464 | 13.51433 | 161 ft | 145 kts | 68° |
| 2026-05-04 22:52 | 52.37867 | 13.53080 | 670 ft | 157 kts | 67° |
| 2026-05-04 22:52 | 52.38258 | 13.54769 | 1405 ft | 160 kts | 66° |
| 2026-05-04 22:52 | 52.38652 | 13.56468 | 1927 ft | 162 kts | 65° |
| 2026-05-04 22:52 | 52.39058 | 13.58194 | 2301 ft | 164 kts | 65° |
| 2026-05-04 22:53 | 52.39472 | 13.59953 | 2656 ft | 166 kts | 66° |
| 2026-05-04 22:53 | 52.39893 | 13.61737 | 3071 ft | 168 kts | 66° |
| 2026-05-04 22:53 | 52.40323 | 13.63546 | 3411 ft | 177 kts | 67° |
| 2026-05-04 22:53 | 52.40800 | 13.65550 | 3554 ft | 202 kts | 67° |
| 2026-05-04 22:54 | 52.41345 | 13.67845 | 3742 ft | 228 kts | 68° |
| 2026-05-04 22:54 | 52.41943 | 13.70378 | 4055 ft | 248 kts | 68° |
| 2026-05-04 22:54 | 52.42582 | 13.73092 | 4593 ft | 259 kts | 69° |
| 2026-05-04 22:54 | 52.43237 | 13.75876 | 5269 ft | 267 kts | 70° |
| 2026-05-04 22:55 | 52.43928 | 13.78815 | 5821 ft | 283 kts | 70° |
| 2026-05-04 22:55 | 52.44616 | 13.81858 | 6591 ft | 286 kts | 81° |
| 2026-05-04 22:55 | 52.44644 | 13.85081 | 7337 ft | 284 kts | 106° |
| 2026-05-04 22:55 | 52.43886 | 13.88019 | 8118 ft | 279 kts | 129° |
| 2026-05-04 22:56 | 52.42508 | 13.90194 | 8924 ft | 275 kts | 152° |
| 2026-05-04 22:56 | 52.40760 | 13.91387 | 9746 ft | 272 kts | 166° |
| 2026-05-04 22:56 | 52.38958 | 13.92310 | 10360 ft | 282 kts | 166° |
| 2026-05-04 22:56 | 52.37007 | 13.93304 | 10572 ft | 305 kts | 166° |
| 2026-05-04 22:57 | 52.34920 | 13.94370 | 10963 ft | 320 kts | 166° |
| 2026-05-04 22:57 | 52.32777 | 13.95475 | 11609 ft | 325 kts | 166° |
| 2026-05-04 22:57 | 52.30603 | 13.96603 | 12299 ft | 330 kts | 166° |
| 2026-05-04 22:57 | 52.28400 | 13.97745 | 12982 ft | 334 kts | 166° |
| 2026-05-04 22:58 | 52.26167 | 13.98901 | 13656 ft | 339 kts | 166° |
| 2026-05-04 22:58 | 52.23904 | 14.00068 | 14272 ft | 343 kts | 166° |
| 2026-05-04 22:58 | 52.21612 | 14.01247 | 14866 ft | 347 kts | 166° |
| 2026-05-04 22:58 | 52.19303 | 14.02433 | 15469 ft | 350 kts | 166° |
| 2026-05-04 22:59 | 52.16964 | 14.03630 | 16083 ft | 353 kts | 166° |
| 2026-05-04 22:59 | 52.14611 | 14.04834 | 16688 ft | 356 kts | 166° |
| 2026-05-04 22:59 | 52.12240 | 14.06047 | 17298 ft | 359 kts | 166° |
| 2026-05-04 22:59 | 52.09845 | 14.07269 | 17908 ft | 362 kts | 166° |
| 2026-05-04 23:00 | 52.07435 | 14.08496 | 18487 ft | 364 kts | 166° |
| 2026-05-04 23:00 | 52.05009 | 14.09728 | 19010 ft | 367 kts | 166° |
| 2026-05-04 23:00 | 52.02597 | 14.10954 | 19521 ft | 370 kts | 166° |
| 2026-05-04 23:00 | 52.00137 | 14.12209 | 20040 ft | 372 kts | 166° |
| 2026-05-04 23:01 | 51.97649 | 14.13478 | 20559 ft | 375 kts | 166° |
| 2026-05-04 23:01 | 51.95147 | 14.14754 | 21069 ft | 378 kts | 166° |
| 2026-05-04 23:01 | 51.92595 | 14.15803 | 21562 ft | 378 kts | 175° |
| 2026-05-04 23:01 | 51.89972 | 14.16032 | 22052 ft | 378 kts | 186° |
| 2026-05-04 23:02 | 51.87374 | 14.15417 | 22530 ft | 378 kts | 196° |
| 2026-05-04 23:02 | 51.84890 | 14.14010 | 22993 ft | 380 kts | 205° |
| 2026-05-04 23:02 | 51.82460 | 14.12309 | 23448 ft | 383 kts | 205° |
| 2026-05-04 23:02 | 51.79998 | 14.10597 | 23840 ft | 386 kts | 205° |
| 2026-05-04 23:03 | 51.77522 | 14.08885 | 24228 ft | 389 kts | 205° |
| 2026-05-04 23:03 | 51.75027 | 14.07161 | 24615 ft | 391 kts | 205° |
| 2026-05-04 23:03 | 51.72520 | 14.05426 | 24986 ft | 393 kts | 205° |
| 2026-05-04 23:03 | 51.69998 | 14.03684 | 25354 ft | 395 kts | 205° |
| 2026-05-04 23:04 | 51.67455 | 14.01933 | 25712 ft | 398 kts | 205° |
| 2026-05-04 23:04 | 51.64900 | 14.00179 | 26067 ft | 400 kts | 205° |
| 2026-05-04 23:04 | 51.62329 | 13.98415 | 26413 ft | 402 kts | 205° |
| 2026-05-04 23:04 | 51.59751 | 13.96652 | 26757 ft | 404 kts | 205° |
| 2026-05-04 23:05 | 51.57193 | 13.94904 | 27089 ft | 406 kts | 205° |
| 2026-05-04 23:05 | 51.54587 | 13.93122 | 27432 ft | 408 kts | 205° |
| 2026-05-04 23:05 | 51.51964 | 13.91332 | 27762 ft | 410 kts | 205° |
| 2026-05-04 23:05 | 51.49328 | 13.89531 | 28083 ft | 412 kts | 205° |
| 2026-05-04 23:06 | 51.46676 | 13.87758 | 28420 ft | 415 kts | 202° |
| 2026-05-04 23:06 | 51.43877 | 13.86498 | 28737 ft | 420 kts | 193° |
| 2026-05-04 23:06 | 51.40998 | 13.85658 | 29038 ft | 422 kts | 192° |
| 2026-05-04 23:06 | 51.38098 | 13.84827 | 29327 ft | 424 kts | 192° |
| 2026-05-04 23:07 | 51.35185 | 13.83997 | 29618 ft | 426 kts | 192° |
| 2026-05-04 23:07 | 51.32260 | 13.83163 | 29895 ft | 427 kts | 192° |
| 2026-05-04 23:07 | 51.29326 | 13.82322 | 30138 ft | 429 kts | 192° |
| 2026-05-04 23:07 | 51.26374 | 13.81474 | 30362 ft | 431 kts | 192° |
| 2026-05-04 23:08 | 51.23421 | 13.80621 | 30590 ft | 432 kts | 192° |
| 2026-05-04 23:08 | 51.20457 | 13.79769 | 30800 ft | 434 kts | 192° |
| 2026-05-04 23:08 | 51.17482 | 13.78920 | 31022 ft | 435 kts | 192° |
| 2026-05-04 23:08 | 51.14539 | 13.78081 | 31319 ft | 434 kts | 192° |
| 2026-05-04 23:09 | 51.11574 | 13.77234 | 31618 ft | 433 kts | 192° |
| 2026-05-04 23:09 | 51.08609 | 13.76387 | 31922 ft | 432 kts | 192° |
| 2026-05-04 23:09 | 51.05655 | 13.75546 | 32221 ft | 431 kts | 192° |
| 2026-05-04 23:09 | 51.02705 | 13.74708 | 32513 ft | 430 kts | 192° |
| 2026-05-04 23:10 | 50.99754 | 13.73871 | 32806 ft | 430 kts | 192° |
| 2026-05-04 23:10 | 50.96814 | 13.73038 | 33097 ft | 429 kts | 192° |
| 2026-05-04 23:10 | 50.93883 | 13.72206 | 33395 ft | 428 kts | 192° |
| 2026-05-04 23:10 | 50.90952 | 13.71374 | 33686 ft | 427 kts | 192° |
| 2026-05-04 23:11 | 50.88062 | 13.70352 | 33981 ft | 424 kts | 198° |
| 2026-05-04 23:11 | 50.85224 | 13.69067 | 34236 ft | 424 kts | 198° |
| 2026-05-04 23:11 | 50.82423 | 13.67793 | 34470 ft | 423 kts | 198° |
| 2026-05-04 23:11 | 50.79594 | 13.66509 | 34692 ft | 423 kts | 198° |
| 2026-05-04 23:12 | 50.76758 | 13.65229 | 34892 ft | 423 kts | 198° |
| 2026-05-04 23:12 | 50.73881 | 13.64244 | 34961 ft | 423 kts | 189° |
| 2026-05-04 23:12 | 50.68009 | 13.64393 | 34967 ft | 426 kts | 171° |
| 2026-05-04 23:13 | 50.62244 | 13.66701 | 34966 ft | 428 kts | 168° |
| 2026-05-04 23:13 | 50.56491 | 13.69103 | 34965 ft | 428 kts | 168° |
| 2026-05-04 23:14 | 50.50734 | 13.71490 | 34968 ft | 428 kts | 168° |
| 2026-05-04 23:14 | 50.44970 | 13.73866 | 34963 ft | 428 kts | 168° |
| 2026-05-04 23:15 | 50.39261 | 13.76210 | 34958 ft | 428 kts | 168° |
| 2026-05-04 23:15 | 50.33499 | 13.78572 | 34955 ft | 428 kts | 168° |
| 2026-05-04 23:16 | 50.27742 | 13.80919 | 34947 ft | 428 kts | 168° |
| 2026-05-04 23:16 | 50.21982 | 13.83252 | 34943 ft | 428 kts | 168° |
| 2026-05-04 23:17 | 50.16209 | 13.85593 | 34940 ft | 428 kts | 168° |
| 2026-05-04 23:17 | 50.10444 | 13.87931 | 34938 ft | 428 kts | 168° |
| 2026-05-04 23:18 | 50.04679 | 13.90260 | 34937 ft | 428 kts | 168° |
| 2026-05-04 23:18 | 49.98946 | 13.92587 | 34938 ft | 428 kts | 168° |
| 2026-05-04 23:19 | 49.93178 | 13.94901 | 34936 ft | 428 kts | 168° |
| 2026-05-04 23:19 | 49.87406 | 13.97212 | 34939 ft | 428 kts | 168° |
| 2026-05-04 23:20 | 49.81631 | 13.99529 | 34939 ft | 428 kts | 168° |
| 2026-05-04 23:20 | 49.75862 | 14.01829 | 34941 ft | 429 kts | 168° |
| 2026-05-04 23:21 | 49.70085 | 14.04133 | 34937 ft | 429 kts | 168° |
| 2026-05-04 23:21 | 49.65288 | 14.06045 | 34938 ft | 429 kts | 168° |
| 2026-05-04 23:22 | 49.59503 | 14.08332 | 34935 ft | 429 kts | 168° |
| 2026-05-04 23:22 | 49.52779 | 14.10983 | 34931 ft | 429 kts | 168° |
| 2026-05-04 23:23 | 49.47929 | 14.12896 | 34930 ft | 429 kts | 168° |
| 2026-05-04 23:23 | 49.42180 | 14.15161 | 34928 ft | 429 kts | 168° |
| 2026-05-04 23:24 | 49.36386 | 14.17441 | 34928 ft | 430 kts | 168° |
| 2026-05-04 23:24 | 49.30593 | 14.19716 | 34929 ft | 430 kts | 168° |
| 2026-05-04 23:25 | 49.24794 | 14.21989 | 34931 ft | 430 kts | 168° |
| 2026-05-04 23:25 | 49.18994 | 14.24241 | 34926 ft | 430 kts | 168° |
| 2026-05-04 23:26 | 49.13187 | 14.26485 | 34924 ft | 430 kts | 168° |
| 2026-05-04 23:26 | 49.07382 | 14.28736 | 34927 ft | 430 kts | 167° |
| 2026-05-04 23:27 | 49.01576 | 14.30984 | 34923 ft | 430 kts | 167° |
| 2026-05-04 23:27 | 48.95768 | 14.33211 | 34922 ft | 430 kts | 170° |
| 2026-05-04 23:28 | 48.89845 | 14.34150 | 34924 ft | 428 kts | 178° |
| 2026-05-04 23:28 | 48.83902 | 14.34797 | 34924 ft | 428 kts | 178° |
| 2026-05-04 23:29 | 48.77956 | 14.35446 | 34930 ft | 429 kts | 178° |
| 2026-05-04 23:29 | 48.72000 | 14.36094 | 34926 ft | 429 kts | 178° |
| 2026-05-04 23:30 | 48.66043 | 14.36747 | 34925 ft | 429 kts | 178° |
| 2026-05-04 23:30 | 48.60089 | 14.37384 | 34924 ft | 429 kts | 178° |
| 2026-05-04 23:31 | 48.54133 | 14.38034 | 34918 ft | 429 kts | 178° |
| 2026-05-04 23:31 | 48.48209 | 14.38678 | 34914 ft | 429 kts | 178° |
| 2026-05-04 23:32 | 48.42247 | 14.39316 | 34914 ft | 429 kts | 178° |
| 2026-05-04 23:32 | 48.36286 | 14.39967 | 34911 ft | 429 kts | 177° |
| 2026-05-04 23:33 | 48.30322 | 14.40609 | 34909 ft | 430 kts | 178° |
| 2026-05-04 23:33 | 48.24359 | 14.41233 | 34906 ft | 430 kts | 178° |
| 2026-05-04 23:34 | 48.18398 | 14.41871 | 34903 ft | 430 kts | 177° |
| 2026-05-04 23:34 | 48.12435 | 14.42513 | 34943 ft | 429 kts | 178° |
| 2026-05-04 23:35 | 48.06476 | 14.43154 | 34944 ft | 428 kts | 178° |
| 2026-05-04 23:35 | 48.00535 | 14.43776 | 34942 ft | 428 kts | 178° |
| 2026-05-04 23:36 | 47.94602 | 14.44404 | 34946 ft | 428 kts | 178° |
| 2026-05-04 23:36 | 47.88703 | 14.44986 | 34946 ft | 427 kts | 179° |
| 2026-05-04 23:37 | 47.82770 | 14.45360 | 34949 ft | 427 kts | 180° |
| 2026-05-04 23:37 | 47.76833 | 14.45652 | 34951 ft | 427 kts | 180° |
| 2026-05-04 23:38 | 47.70899 | 14.45983 | 34956 ft | 427 kts | 179° |
| 2026-05-04 23:38 | 47.64959 | 14.46346 | 34959 ft | 427 kts | 179° |
| 2026-05-04 23:39 | 47.59020 | 14.46710 | 34973 ft | 427 kts | 179° |
| 2026-05-04 23:39 | 47.53072 | 14.47075 | 34983 ft | 427 kts | 179° |
| 2026-05-04 23:40 | 47.47128 | 14.47427 | 34986 ft | 427 kts | 179° |
| 2026-05-04 23:40 | 47.41185 | 14.47781 | 34997 ft | 427 kts | 179° |
| 2026-05-04 23:41 | 47.35243 | 14.48126 | 35006 ft | 427 kts | 179° |
| 2026-05-04 23:41 | 47.29329 | 14.48474 | 35009 ft | 428 kts | 179° |
| 2026-05-04 23:42 | 47.23377 | 14.48840 | 35012 ft | 428 kts | 179° |
| 2026-05-04 23:42 | 47.17420 | 14.49198 | 35018 ft | 429 kts | 179° |
| 2026-05-04 23:43 | 47.11459 | 14.49608 | 35020 ft | 430 kts | 175° |
| 2026-05-04 23:43 | 47.05559 | 14.51166 | 35027 ft | 431 kts | 171° |
| 2026-05-04 23:44 | 46.99664 | 14.52826 | 35026 ft | 432 kts | 171° |
| 2026-05-04 23:44 | 46.93757 | 14.54474 | 35031 ft | 432 kts | 171° |
| 2026-05-04 23:45 | 46.87857 | 14.56110 | 35026 ft | 432 kts | 171° |
| 2026-05-04 23:45 | 46.81935 | 14.57749 | 35028 ft | 433 kts | 171° |
| 2026-05-04 23:46 | 46.76009 | 14.59390 | 35027 ft | 433 kts | 171° |
| 2026-05-04 23:46 | 46.70082 | 14.61030 | 35027 ft | 434 kts | 171° |
| 2026-05-04 23:47 | 46.64186 | 14.62657 | 35024 ft | 434 kts | 171° |
| 2026-05-04 23:47 | 46.58240 | 14.64284 | 35028 ft | 435 kts | 171° |
| 2026-05-04 23:48 | 46.52293 | 14.65911 | 35025 ft | 435 kts | 171° |
| 2026-05-04 23:48 | 46.46399 | 14.67524 | 35050 ft | 436 kts | 171° |
| 2026-05-04 23:49 | 46.40434 | 14.69153 | 35059 ft | 436 kts | 171° |
| 2026-05-04 23:49 | 46.34470 | 14.70786 | 35058 ft | 436 kts | 171° |
| 2026-05-04 23:50 | 46.28504 | 14.72417 | 35059 ft | 436 kts | 172° |
| 2026-05-04 23:50 | 46.22532 | 14.74038 | 35065 ft | 437 kts | 172° |
| 2026-05-04 23:51 | 46.16595 | 14.75640 | 35060 ft | 437 kts | 172° |
| 2026-05-04 23:51 | 46.10618 | 14.77252 | 35057 ft | 437 kts | 172° |
| 2026-05-04 23:52 | 46.04660 | 14.79086 | 35056 ft | 438 kts | 168° |
| 2026-05-04 23:52 | 45.98781 | 14.81446 | 35054 ft | 439 kts | 166° |
| 2026-05-04 23:53 | 45.92907 | 14.83905 | 35056 ft | 439 kts | 166° |
| 2026-05-04 23:53 | 45.87019 | 14.86250 | 35062 ft | 439 kts | 167° |
| 2026-05-04 23:54 | 45.81095 | 14.88519 | 34168 ft | 445 kts | 167° |
| 2026-05-04 23:54 | 45.78148 | 14.89644 | 33581 ft | 441 kts | 167° |
| 2026-05-04 23:54 | 45.75199 | 14.90780 | 33035 ft | 436 kts | 167° |
| 2026-05-04 23:55 | 45.72287 | 14.91907 | 32503 ft | 432 kts | 167° |
| 2026-05-04 23:55 | 45.69399 | 14.93029 | 31976 ft | 428 kts | 167° |
| 2026-05-04 23:55 | 45.63709 | 14.95241 | 30932 ft | 420 kts | 167° |
| 2026-05-04 23:56 | 45.60890 | 14.96332 | 30413 ft | 417 kts | 167° |
| 2026-05-04 23:56 | 45.58100 | 14.97409 | 29870 ft | 414 kts | 167° |
| 2026-05-04 23:56 | 45.55328 | 14.98474 | 29357 ft | 409 kts | 167° |
| 2026-05-04 23:56 | 45.52598 | 14.99521 | 28866 ft | 404 kts | 167° |
| 2026-05-04 23:57 | 45.49889 | 15.00484 | 28391 ft | 398 kts | 172° |
| 2026-05-04 23:57 | 45.47155 | 15.00883 | 27935 ft | 392 kts | 179° |
| 2026-05-04 23:57 | 45.44449 | 15.01068 | 27479 ft | 388 kts | 179° |
| 2026-05-04 23:57 | 45.41761 | 15.01256 | 27031 ft | 384 kts | 179° |
| 2026-05-04 23:58 | 45.39099 | 15.01444 | 26597 ft | 381 kts | 179° |
| 2026-05-04 23:58 | 45.36465 | 15.01631 | 26172 ft | 377 kts | 179° |
| 2026-05-04 23:58 | 45.33848 | 15.01818 | 25730 ft | 374 kts | 179° |
| 2026-05-04 23:58 | 45.31256 | 15.02009 | 25303 ft | 372 kts | 179° |
| 2026-05-04 23:59 | 45.28709 | 15.02195 | 24860 ft | 370 kts | 179° |
| 2026-05-04 23:59 | 45.26142 | 15.02380 | 24423 ft | 368 kts | 179° |
| 2026-05-04 23:59 | 45.23592 | 15.02560 | 23976 ft | 366 kts | 179° |
| 2026-05-04 23:59 | 45.21048 | 15.02736 | 23495 ft | 365 kts | 179° |
| 2026-05-05 00:00 | 45.18519 | 15.02911 | 23014 ft | 363 kts | 179° |
| 2026-05-05 00:00 | 45.17670 | 15.02969 | 22856 ft | 362 kts | 179° |
| 2026-05-05 00:00 | 45.13521 | 15.03259 | 22104 ft | 357 kts | 179° |
| 2026-05-05 00:00 | 45.11050 | 15.03432 | 21655 ft | 354 kts | 179° |
| 2026-05-05 00:01 | 45.08590 | 15.03607 | 21207 ft | 352 kts | 178° |
| 2026-05-05 00:01 | 45.06150 | 15.03780 | 20760 ft | 350 kts | 178° |
| 2026-05-05 00:01 | 45.03721 | 15.03951 | 20316 ft | 348 kts | 178° |
| 2026-05-05 00:01 | 45.01307 | 15.04120 | 19887 ft | 347 kts | 178° |
| 2026-05-05 00:02 | 44.98892 | 15.04288 | 19438 ft | 346 kts | 178° |
| 2026-05-05 00:02 | 44.96497 | 15.04457 | 18999 ft | 344 kts | 178° |
| 2026-05-05 00:02 | 44.94108 | 15.04627 | 18573 ft | 343 kts | 178° |
| 2026-05-05 00:02 | 44.91729 | 15.04795 | 18089 ft | 341 kts | 178° |
| 2026-05-05 00:03 | 44.89373 | 15.04960 | 17667 ft | 337 kts | 178° |
| 2026-05-05 00:03 | 44.87041 | 15.05122 | 17247 ft | 334 kts | 178° |
| 2026-05-05 00:03 | 44.84723 | 15.05284 | 16833 ft | 332 kts | 178° |
| 2026-05-05 00:03 | 44.82425 | 15.05446 | 16427 ft | 330 kts | 178° |
| 2026-05-05 00:04 | 44.80140 | 15.05606 | 16018 ft | 328 kts | 178° |
| 2026-05-05 00:04 | 44.77869 | 15.05762 | 15616 ft | 326 kts | 178° |
| 2026-05-05 00:04 | 44.75615 | 15.05916 | 15215 ft | 324 kts | 178° |
| 2026-05-05 00:04 | 44.73398 | 15.06068 | 14822 ft | 322 kts | 178° |
| 2026-05-05 00:05 | 44.71184 | 15.06221 | 14589 ft | 311 kts | 178° |
| 2026-05-05 00:05 | 44.69063 | 15.06355 | 14102 ft | 301 kts | 181° |
| 2026-05-05 00:05 | 44.67005 | 15.06032 | 13486 ft | 295 kts | 193° |
| 2026-05-05 00:05 | 44.65081 | 15.05096 | 12783 ft | 293 kts | 205° |
| 2026-05-05 00:06 | 44.63279 | 15.03749 | 12163 ft | 294 kts | 207° |
| 2026-05-05 00:06 | 44.61476 | 15.02393 | 11780 ft | 294 kts | 207° |
| 2026-05-05 00:06 | 44.59672 | 15.01048 | 11390 ft | 293 kts | 207° |
| 2026-05-05 00:06 | 44.57868 | 14.99713 | 10999 ft | 293 kts | 207° |
| 2026-05-05 00:07 | 44.56069 | 14.98382 | 10617 ft | 292 kts | 207° |
| 2026-05-05 00:07 | 44.54276 | 14.97052 | 10214 ft | 292 kts | 208° |
| 2026-05-05 00:07 | 44.52491 | 14.95723 | 9896 ft | 288 kts | 208° |
| 2026-05-05 00:07 | 44.50755 | 14.94430 | 9689 ft | 280 kts | 208° |
| 2026-05-05 00:08 | 44.49045 | 14.93155 | 9343 ft | 276 kts | 208° |
| 2026-05-05 00:08 | 44.47352 | 14.91896 | 8970 ft | 275 kts | 207° |
| 2026-05-05 00:08 | 44.45574 | 14.91066 | 8596 ft | 273 kts | 187° |
| 2026-05-05 00:08 | 44.43689 | 14.91193 | 8200 ft | 273 kts | 167° |
| 2026-05-05 00:09 | 44.41959 | 14.92291 | 7804 ft | 275 kts | 145° |
| 2026-05-05 00:09 | 44.40548 | 14.94101 | 7438 ft | 274 kts | 137° |
| 2026-05-05 00:09 | 44.39222 | 14.95936 | 7312 ft | 262 kts | 137° |
| 2026-05-05 00:09 | 44.37950 | 14.97692 | 7191 ft | 251 kts | 137° |
| 2026-05-05 00:10 | 44.36735 | 14.99364 | 7067 ft | 240 kts | 137° |
| 2026-05-05 00:10 | 44.35956 | 15.00435 | 6976 ft | 235 kts | 137° |
| 2026-05-05 00:10 | 44.34800 | 15.02019 | 6730 ft | 231 kts | 137° |
| 2026-05-05 00:10 | 44.33638 | 15.03591 | 6285 ft | 235 kts | 138° |
| 2026-05-05 00:11 | 44.32455 | 15.05195 | 5912 ft | 237 kts | 137° |
| 2026-05-05 00:11 | 44.30896 | 15.07328 | 5474 ft | 236 kts | 137° |
| 2026-05-05 00:11 | 44.29728 | 15.08927 | 5167 ft | 234 kts | 137° |
| 2026-05-05 00:11 | 44.28568 | 15.10513 | 4857 ft | 233 kts | 137° |
| 2026-05-05 00:12 | 44.27786 | 15.11583 | 4643 ft | 232 kts | 137° |
| 2026-05-05 00:12 | 44.26634 | 15.13157 | 4336 ft | 231 kts | 137° |
| 2026-05-05 00:12 | 44.25488 | 15.14722 | 4023 ft | 230 kts | 137° |
| 2026-05-05 00:12 | 44.24348 | 15.16279 | 3728 ft | 228 kts | 137° |
| 2026-05-05 00:13 | 44.23216 | 15.17822 | 3428 ft | 227 kts | 137° |
| 2026-05-05 00:13 | 44.22122 | 15.19315 | 3131 ft | 218 kts | 137° |
| 2026-05-05 00:13 | 44.21059 | 15.20764 | 2847 ft | 209 kts | 137° |
| 2026-05-05 00:13 | 44.20039 | 15.22153 | 2551 ft | 201 kts | 136° |
| 2026-05-05 00:14 | 44.19065 | 15.23479 | 2327 ft | 192 kts | 136° |
| 2026-05-05 00:14 | 44.18119 | 15.24766 | 2039 ft | 188 kts | 136° |
| 2026-05-05 00:14 | 44.17194 | 15.26022 | 1783 ft | 182 kts | 136° |
| 2026-05-05 00:14 | 44.16316 | 15.27217 | 1541 ft | 170 kts | 136° |
| 2026-05-05 00:15 | 44.15521 | 15.28297 | 1354 ft | 151 kts | 136° |
| 2026-05-05 00:15 | 44.14795 | 15.29284 | 1154 ft | 142 kts | 136° |
| 2026-05-05 00:15 | 44.14095 | 15.30236 | 969 ft | 140 kts | 136° |
| 2026-05-05 00:15 | 44.13402 | 15.31175 | 789 ft | 138 kts | 136° |
| 2026-05-05 00:16 | 44.12717 | 15.32115 | 632 ft | 138 kts | 134° |
| 2026-05-05 00:16 | 44.12044 | 15.33051 | 416 ft | 136 kts | 135° |
| 2026-05-05 00:16 | 44.11370 | 15.33948 | 292 ft | 131 kts | 135° |
| 2026-05-05 00:16 | 44.10804 | 15.34708 | 284 ft | 89 kts | 136° |
| 2026-05-05 00:17 | 44.10476 | 15.35149 | 283 ft | 49 kts | 136° |
| 2026-05-05 00:17 | 44.10248 | 15.35455 | 283 ft | 42 kts | 136° |
| 2026-05-05 00:17 | 44.10071 | 15.35694 | 285 ft | 18 kts | 136° |
| 2026-05-05 00:17 | 44.10011 | 15.35692 | 289 ft | 10 kts | 227° |
| 2026-05-05 00:18 | 44.09965 | 15.35625 | 285 ft | 9 kts | 226° |
| 2026-05-05 00:18 | 44.09923 | 15.35566 | 286 ft | 8 kts | 225° |
| 2026-05-05 00:18 | 44.09873 | 15.35528 | 284 ft | 9 kts | 186° |
| 2026-05-05 00:18 | 44.09807 | 15.35537 | 282 ft | 10 kts | 176° |
| 2026-05-05 00:19 | 44.09741 | 15.35538 | 280 ft | 9 kts | 180° |
| 2026-05-05 00:19 | 44.09688 | 15.35539 | 279 ft | 7 kts | 180° |
| 2026-05-05 00:19 | 44.09644 | 15.35541 | 279 ft | 6 kts | 176° |
| 2026-05-05 00:19 | 44.09609 | 15.35545 | 279 ft | 4 kts | 176° |
| 2026-05-05 00:20 | 44.09573 | 15.35541 | 281 ft | 5 kts | 209° |
| 2026-05-05 00:20 | 44.09563 | 15.35498 | 281 ft | 4 kts | 263° |
| 2026-05-05 00:20 | 44.09575 | 15.35466 | 283 ft | 5 kts | 326° |
| 2026-05-05 00:20 | 44.09599 | 15.35444 | 282 ft | 3 kts | 326° |
| 2026-05-05 00:21 | 44.09608 | 15.35435 | 282 ft | 0 kts | 325° |